sensor_id;sensor_type;location;lat;lon;timestamp;pressure;altitude;pressure_sealevel;temperature;humidity
62928;BME280;51070;52.236;-0.892;2023-02-15T00:01:50;101790.62;;;4.26;89.37
62928;BME280;51070;52.236;-0.892;2023-02-15T00:04:19;101792.23;;;4.25;89.46
62928;BME280;51070;52.236;-0.892;2023-02-15T00:06:44;101790.80;;;4.21;89.61
62928;BME280;51070;52.236;-0.892;2023-02-15T00:09:11;101787.77;;;4.15;89.80
62928;BME280;51070;52.236;-0.892;2023-02-15T00:11:37;101782.84;;;4.07;89.75
62928;BME280;51070;52.236;-0.892;2023-02-15T00:14:06;101786.68;;;3.98;89.69
62928;BME280;51070;52.236;-0.892;2023-02-15T00:16:33;101784.55;;;3.91;89.94
62928;BME280;51070;52.236;-0.892;2023-02-15T00:18:59;101780.26;;;3.81;89.89
62928;BME280;51070;52.236;-0.892;2023-02-15T00:21:28;101776.52;;;3.75;90.02
62928;BME280;51070;52.236;-0.892;2023-02-15T00:23:55;101773.80;;;3.71;90.37
62928;BME280;51070;52.236;-0.892;2023-02-15T00:26:20;101767.51;;;3.67;89.92
62928;BME280;51070;52.236;-0.892;2023-02-15T00:28:45;101761.37;;;3.62;90.22
62928;BME280;51070;52.236;-0.892;2023-02-15T00:31:12;101754.02;;;3.60;90.53
62928;BME280;51070;52.236;-0.892;2023-02-15T00:33:38;101750.71;;;3.60;90.73
62928;BME280;51070;52.236;-0.892;2023-02-15T00:36:06;101742.79;;;3.61;90.74
62928;BME280;51070;52.236;-0.892;2023-02-15T00:38:33;101734.88;;;3.64;91.85
62928;BME280;51070;52.236;-0.892;2023-02-15T00:41:01;101732.04;;;3.70;92.36
62928;BME280;51070;52.236;-0.892;2023-02-15T00:43:28;101726.52;;;3.69;91.27
62928;BME280;51070;52.236;-0.892;2023-02-15T00:45:54;101731.09;;;3.64;90.73
62928;BME280;51070;52.236;-0.892;2023-02-15T00:48:20;101727.91;;;3.54;90.61
62928;BME280;51070;52.236;-0.892;2023-02-15T00:50:48;101727.86;;;3.45;90.79
62928;BME280;51070;52.236;-0.892;2023-02-15T00:53:14;101730.25;;;3.36;90.65
62928;BME280;51070;52.236;-0.892;2023-02-15T00:55:39;101731.06;;;3.26;90.71
62928;BME280;51070;52.236;-0.892;2023-02-15T00:58:06;101725.91;;;3.19;90.75
62928;BME280;51070;52.236;-0.892;2023-02-15T01:00:32;101720.20;;;3.16;90.97
62928;BME280;51070;52.236;-0.892;2023-02-15T01:02:58;101714.57;;;3.12;90.89
62928;BME280;51070;52.236;-0.892;2023-02-15T01:05:23;101708.37;;;3.11;91.06
62928;BME280;51070;52.236;-0.892;2023-02-15T01:07:49;101702.10;;;3.12;91.27
62928;BME280;51070;52.236;-0.892;2023-02-15T01:10:15;101693.39;;;3.14;91.36
62928;BME280;51070;52.236;-0.892;2023-02-15T01:12:40;101689.17;;;3.17;91.27
62928;BME280;51070;52.236;-0.892;2023-02-15T01:15:06;101687.30;;;3.17;90.69
62928;BME280;51070;52.236;-0.892;2023-02-15T01:17:32;101680.23;;;3.14;90.69
62928;BME280;51070;52.236;-0.892;2023-02-15T01:19:58;101682.51;;;3.08;90.38
62928;BME280;51070;52.236;-0.892;2023-02-15T01:22:24;101681.33;;;3.00;89.67
62928;BME280;51070;52.236;-0.892;2023-02-15T01:24:50;101679.38;;;2.90;89.45
62928;BME280;51070;52.236;-0.892;2023-02-15T01:27:15;101671.41;;;2.82;89.64
62928;BME280;51070;52.236;-0.892;2023-02-15T01:29:41;101669.84;;;2.77;89.96
62928;BME280;51070;52.236;-0.892;2023-02-15T01:32:06;101665.64;;;2.75;90.08
62928;BME280;51070;52.236;-0.892;2023-02-15T01:34:32;101662.70;;;2.77;90.70
62928;BME280;51070;52.236;-0.892;2023-02-15T01:36:57;101663.15;;;2.83;90.95
62928;BME280;51070;52.236;-0.892;2023-02-15T01:39:22;101660.10;;;2.88;90.76
62928;BME280;51070;52.236;-0.892;2023-02-15T01:41:48;101655.31;;;2.92;90.64
62928;BME280;51070;52.236;-0.892;2023-02-15T01:47:30;101651.55;;;3.03;91.72
62928;BME280;51070;52.236;-0.892;2023-02-15T01:52:29;101638.73;;;3.23;93.70
62928;BME280;51070;52.236;-0.892;2023-02-15T01:54:55;101641.35;;;3.30;93.76
62928;BME280;51070;52.236;-0.892;2023-02-15T01:57:23;101639.97;;;3.34;93.58
62928;BME280;51070;52.236;-0.892;2023-02-15T01:59:55;101637.94;;;3.35;92.42
62928;BME280;51070;52.236;-0.892;2023-02-15T02:02:22;101640.31;;;3.30;91.63
62928;BME280;51070;52.236;-0.892;2023-02-15T02:04:54;101638.86;;;3.25;90.95
62928;BME280;51070;52.236;-0.892;2023-02-15T02:07:27;101639.50;;;3.22;91.05
62928;BME280;51070;52.236;-0.892;2023-02-15T02:09:52;101630.59;;;3.15;90.11
62928;BME280;51070;52.236;-0.892;2023-02-15T02:12:18;101625.73;;;3.10;90.27
62928;BME280;51070;52.236;-0.892;2023-02-15T02:14:48;101620.68;;;3.04;90.23
62928;BME280;51070;52.236;-0.892;2023-02-15T02:20:14;101612.75;;;2.85;89.92
62928;BME280;51070;52.236;-0.892;2023-02-15T02:23:06;101608.13;;;2.76;89.41
62928;BME280;51070;52.236;-0.892;2023-02-15T02:36:02;101607.05;;;2.10;90.38
62928;BME280;51070;52.236;-0.892;2023-02-15T02:44:07;101597.52;;;1.85;91.69
62928;BME280;51070;52.236;-0.892;2023-02-15T02:46:57;101599.66;;;1.82;91.89
62928;BME280;51070;52.236;-0.892;2023-02-15T02:49:32;101599.59;;;1.79;91.75
62928;BME280;51070;52.236;-0.892;2023-02-15T02:52:49;101592.45;;;1.73;91.88
62928;BME280;51070;52.236;-0.892;2023-02-15T02:54:48;101583.73;;;1.73;92.47
62928;BME280;51070;52.236;-0.892;2023-02-15T02:57:14;101574.80;;;1.76;92.82
62928;BME280;51070;52.236;-0.892;2023-02-15T02:59:41;101572.48;;;1.81;92.75
62928;BME280;51070;52.236;-0.892;2023-02-15T03:02:31;101574.74;;;1.86;92.70
62928;BME280;51070;52.236;-0.892;2023-02-15T03:05:03;101574.06;;;1.90;92.73
62928;BME280;51070;52.236;-0.892;2023-02-15T03:07:34;101577.65;;;1.94;92.50
62928;BME280;51070;52.236;-0.892;2023-02-15T03:10:03;101575.16;;;1.93;92.07
62928;BME280;51070;52.236;-0.892;2023-02-15T03:12:37;101569.40;;;1.89;91.91
62928;BME280;51070;52.236;-0.892;2023-02-15T03:17:34;101559.41;;;1.90;92.26
62928;BME280;51070;52.236;-0.892;2023-02-15T03:20:09;101550.30;;;1.91;92.30
62928;BME280;51070;52.236;-0.892;2023-02-15T03:22:40;101541.99;;;1.92;92.25
62928;BME280;51070;52.236;-0.892;2023-02-15T03:25:11;101529.52;;;1.91;92.26
62928;BME280;51070;52.236;-0.892;2023-02-15T03:27:44;101526.63;;;1.94;92.64
62928;BME280;51070;52.236;-0.892;2023-02-15T03:30:12;101523.50;;;1.99;92.84
62928;BME280;51070;52.236;-0.892;2023-02-15T03:32:39;101515.97;;;2.05;93.13
62928;BME280;51070;52.236;-0.892;2023-02-15T03:35:07;101508.34;;;2.10;92.93
62928;BME280;51070;52.236;-0.892;2023-02-15T03:37:40;101502.40;;;2.18;93.52
62928;BME280;51070;52.236;-0.892;2023-02-15T03:40:18;101501.53;;;2.26;93.55
62928;BME280;51070;52.236;-0.892;2023-02-15T03:45:42;101491.53;;;2.40;92.99
62928;BME280;51070;52.236;-0.892;2023-02-15T03:48:36;101491.34;;;2.42;92.84
62928;BME280;51070;52.236;-0.892;2023-02-15T03:51:11;101492.83;;;2.41;92.22
62928;BME280;51070;52.236;-0.892;2023-02-15T03:53:57;101494.65;;;2.38;92.17
62928;BME280;51070;52.236;-0.892;2023-02-15T03:56:24;101486.36;;;2.41;92.41
62928;BME280;51070;52.236;-0.892;2023-02-15T03:58:49;101484.70;;;2.42;91.88
62928;BME280;51070;52.236;-0.892;2023-02-15T04:01:39;101484.31;;;2.41;91.97
62928;BME280;51070;52.236;-0.892;2023-02-15T04:04:28;101480.45;;;2.38;91.69
62928;BME280;51070;52.236;-0.892;2023-02-15T04:06:54;101480.98;;;2.33;90.71
62928;BME280;51070;52.236;-0.892;2023-02-15T04:09:20;101481.66;;;2.25;90.29
62928;BME280;51070;52.236;-0.892;2023-02-15T04:12:05;101480.33;;;2.18;90.74
62928;BME280;51070;52.236;-0.892;2023-02-15T04:14:30;101475.12;;;2.18;90.93
62928;BME280;51070;52.236;-0.892;2023-02-15T04:17:14;101476.98;;;2.19;90.91
62928;BME280;51070;52.236;-0.892;2023-02-15T04:19:40;101476.23;;;2.23;90.88
62928;BME280;51070;52.236;-0.892;2023-02-15T04:22:24;101481.23;;;2.24;90.65
62928;BME280;51070;52.236;-0.892;2023-02-15T04:25:08;101479.39;;;2.22;90.52
62928;BME280;51070;52.236;-0.892;2023-02-15T04:27:39;101481.06;;;2.19;90.22
62928;BME280;51070;52.236;-0.892;2023-02-15T04:30:06;101477.66;;;2.15;90.10
62928;BME280;51070;52.236;-0.892;2023-02-15T04:32:32;101469.53;;;2.14;90.61
62928;BME280;51070;52.236;-0.892;2023-02-15T04:34:57;101463.85;;;2.15;90.65
62928;BME280;51070;52.236;-0.892;2023-02-15T04:37:23;101461.36;;;2.16;90.80
62928;BME280;51070;52.236;-0.892;2023-02-15T04:39:48;101458.29;;;2.18;91.20
62928;BME280;51070;52.236;-0.892;2023-02-15T04:42:15;101458.81;;;2.21;91.31
62928;BME280;51070;52.236;-0.892;2023-02-15T04:44:42;101455.47;;;2.24;91.30
62928;BME280;51070;52.236;-0.892;2023-02-15T04:47:07;101444.09;;;2.24;90.82
62928;BME280;51070;52.236;-0.892;2023-02-15T04:49:33;101441.50;;;2.24;90.29
62928;BME280;51070;52.236;-0.892;2023-02-15T04:51:58;101437.55;;;2.23;90.25
62928;BME280;51070;52.236;-0.892;2023-02-15T04:54:24;101432.92;;;2.21;89.84
62928;BME280;51070;52.236;-0.892;2023-02-15T04:56:49;101432.20;;;2.18;89.83
62928;BME280;51070;52.236;-0.892;2023-02-15T04:59:15;101434.08;;;2.14;89.53
62928;BME280;51070;52.236;-0.892;2023-02-15T05:01:41;101437.17;;;2.07;89.60
62928;BME280;51070;52.236;-0.892;2023-02-15T05:04:07;101435.27;;;2.00;89.38
62928;BME280;51070;52.236;-0.892;2023-02-15T05:06:32;101437.98;;;1.96;89.65
62928;BME280;51070;52.236;-0.892;2023-02-15T05:08:58;101435.79;;;1.92;89.54
62928;BME280;51070;52.236;-0.892;2023-02-15T05:11:25;101436.02;;;1.86;89.76
62928;BME280;51070;52.236;-0.892;2023-02-15T05:13:51;101436.30;;;1.85;90.25
62928;BME280;51070;52.236;-0.892;2023-02-15T05:16:16;101431.98;;;1.89;90.61
62928;BME280;51070;52.236;-0.892;2023-02-15T05:18:42;101432.45;;;1.95;90.94
62928;BME280;51070;52.236;-0.892;2023-02-15T05:21:08;101431.20;;;2.01;90.94
62928;BME280;51070;52.236;-0.892;2023-02-15T05:23:34;101423.20;;;2.07;91.40
62928;BME280;51070;52.236;-0.892;2023-02-15T05:25:59;101418.66;;;2.17;91.86
62928;BME280;51070;52.236;-0.892;2023-02-15T05:28:43;101415.64;;;2.27;91.86
62928;BME280;51070;52.236;-0.892;2023-02-15T05:31:16;101413.77;;;2.31;91.34
62928;BME280;51070;52.236;-0.892;2023-02-15T05:33:43;101415.41;;;2.35;91.51
62928;BME280;51070;52.236;-0.892;2023-02-15T05:36:09;101408.69;;;2.38;91.69
62928;BME280;51070;52.236;-0.892;2023-02-15T05:38:35;101409.76;;;2.39;90.81
62928;BME280;51070;52.236;-0.892;2023-02-15T05:41:03;101407.08;;;2.33;90.00
62928;BME280;51070;52.236;-0.892;2023-02-15T05:43:30;101403.66;;;2.24;90.08
62928;BME280;51070;52.236;-0.892;2023-02-15T05:45:55;101403.48;;;2.15;89.51
62928;BME280;51070;52.236;-0.892;2023-02-15T05:48:23;101400.14;;;2.09;89.50
62928;BME280;51070;52.236;-0.892;2023-02-15T05:51:08;101395.86;;;2.09;90.67
62928;BME280;51070;52.236;-0.892;2023-02-15T05:53:37;101393.31;;;2.11;90.90
62928;BME280;51070;52.236;-0.892;2023-02-15T05:56:04;101390.56;;;2.15;91.07
62928;BME280;51070;52.236;-0.892;2023-02-15T05:58:35;101396.39;;;2.23;91.34
62928;BME280;51070;52.236;-0.892;2023-02-15T06:01:12;101399.70;;;2.26;90.66
62928;BME280;51070;52.236;-0.892;2023-02-15T06:03:38;101405.04;;;2.26;90.32
62928;BME280;51070;52.236;-0.892;2023-02-15T06:06:04;101399.21;;;2.22;90.21
62928;BME280;51070;52.236;-0.892;2023-02-15T06:08:31;101396.37;;;2.16;89.88
62928;BME280;51070;52.236;-0.892;2023-02-15T06:10:56;101390.09;;;2.12;90.18
62928;BME280;51070;52.236;-0.892;2023-02-15T06:13:22;101386.54;;;2.12;90.47
62928;BME280;51070;52.236;-0.892;2023-02-15T06:15:47;101387.94;;;2.15;90.47
62928;BME280;51070;52.236;-0.892;2023-02-15T06:18:13;101385.85;;;2.16;91.18
62928;BME280;51070;52.236;-0.892;2023-02-15T06:20:38;101391.51;;;2.21;91.91
62928;BME280;51070;52.236;-0.892;2023-02-15T06:23:03;101396.02;;;2.24;91.73
62928;BME280;51070;52.236;-0.892;2023-02-15T06:25:29;101394.50;;;2.27;91.87
62928;BME280;51070;52.236;-0.892;2023-02-15T06:27:54;101391.71;;;2.24;91.12
62928;BME280;51070;52.236;-0.892;2023-02-15T06:30:20;101393.27;;;2.24;91.96
62928;BME280;51070;52.236;-0.892;2023-02-15T06:32:45;101393.53;;;2.25;91.65
62928;BME280;51070;52.236;-0.892;2023-02-15T06:35:11;101393.38;;;2.25;91.46
62928;BME280;51070;52.236;-0.892;2023-02-15T06:37:36;101397.80;;;2.25;91.46
62928;BME280;51070;52.236;-0.892;2023-02-15T06:40:02;101403.25;;;2.25;91.22
62928;BME280;51070;52.236;-0.892;2023-02-15T06:42:29;101403.39;;;2.23;91.22
62928;BME280;51070;52.236;-0.892;2023-02-15T06:44:55;101403.38;;;2.20;91.68
62928;BME280;51070;52.236;-0.892;2023-02-15T06:47:20;101409.02;;;2.23;91.93
62928;BME280;51070;52.236;-0.892;2023-02-15T06:49:46;101408.22;;;2.28;92.61
62928;BME280;51070;52.236;-0.892;2023-02-15T06:52:11;101404.98;;;2.32;92.98
62928;BME280;51070;52.236;-0.892;2023-02-15T06:54:37;101400.73;;;2.37;92.53
62928;BME280;51070;52.236;-0.892;2023-02-15T06:57:02;101402.17;;;2.42;92.93
62928;BME280;51070;52.236;-0.892;2023-02-15T06:59:28;101404.09;;;2.49;93.24
62928;BME280;51070;52.236;-0.892;2023-02-15T07:01:53;101404.27;;;2.57;93.23
62928;BME280;51070;52.236;-0.892;2023-02-15T07:04:19;101406.64;;;2.64;93.12
62928;BME280;51070;52.236;-0.892;2023-02-15T07:06:44;101406.80;;;2.70;92.67
62928;BME280;51070;52.236;-0.892;2023-02-15T07:09:11;101413.81;;;2.75;92.49
62928;BME280;51070;52.236;-0.892;2023-02-15T07:11:36;101417.39;;;2.77;92.16
62928;BME280;51070;52.236;-0.892;2023-02-15T07:14:20;101422.11;;;2.74;91.50
62928;BME280;51070;52.236;-0.892;2023-02-15T07:16:46;101417.05;;;2.70;91.86
62928;BME280;51070;52.236;-0.892;2023-02-15T07:19:11;101414.34;;;2.66;91.36
62928;BME280;51070;52.236;-0.892;2023-02-15T07:21:37;101419.40;;;2.63;91.80
62928;BME280;51070;52.236;-0.892;2023-02-15T07:24:03;101420.26;;;2.61;91.90
62928;BME280;51070;52.236;-0.892;2023-02-15T07:26:29;101419.85;;;2.60;92.29
62928;BME280;51070;52.236;-0.892;2023-02-15T07:28:56;101414.36;;;2.59;92.37
62928;BME280;51070;52.236;-0.892;2023-02-15T07:31:21;101414.08;;;2.60;92.78
62928;BME280;51070;52.236;-0.892;2023-02-15T07:33:47;101410.38;;;2.63;93.26
62928;BME280;51070;52.236;-0.892;2023-02-15T07:36:14;101413.00;;;2.68;93.42
62928;BME280;51070;52.236;-0.892;2023-02-15T07:38:40;101416.70;;;2.75;93.64
62928;BME280;51070;52.236;-0.892;2023-02-15T07:41:09;101417.77;;;2.80;93.25
62928;BME280;51070;52.236;-0.892;2023-02-15T07:43:37;101419.33;;;2.82;93.05
62928;BME280;51070;52.236;-0.892;2023-02-15T07:46:05;101423.95;;;2.85;92.85
62928;BME280;51070;52.236;-0.892;2023-02-15T07:48:33;101421.52;;;2.86;93.03
62928;BME280;51070;52.236;-0.892;2023-02-15T07:51:00;101419.22;;;2.90;93.08
62928;BME280;51070;52.236;-0.892;2023-02-15T07:53:25;101417.61;;;2.91;92.82
62928;BME280;51070;52.236;-0.892;2023-02-15T07:55:50;101412.54;;;2.94;93.32
62928;BME280;51070;52.236;-0.892;2023-02-15T07:58:18;101407.86;;;2.98;92.91
62928;BME280;51070;52.236;-0.892;2023-02-15T08:00:44;101401.81;;;3.02;92.92
62928;BME280;51070;52.236;-0.892;2023-02-15T08:03:26;101401.67;;;3.02;93.07
62928;BME280;51070;52.236;-0.892;2023-02-15T08:05:59;101403.68;;;3.02;93.37
62928;BME280;51070;52.236;-0.892;2023-02-15T08:08:26;101403.66;;;3.02;93.64
62928;BME280;51070;52.236;-0.892;2023-02-15T08:11:14;101405.02;;;3.01;93.33
62928;BME280;51070;52.236;-0.892;2023-02-15T08:19:09;101397.97;;;3.08;93.22
62928;BME280;51070;52.236;-0.892;2023-02-15T08:21:38;101394.27;;;3.13;93.44
62928;BME280;51070;52.236;-0.892;2023-02-15T08:24:05;101389.05;;;3.19;93.18
62928;BME280;51070;52.236;-0.892;2023-02-15T08:26:31;101389.42;;;3.22;92.73
62928;BME280;51070;52.236;-0.892;2023-02-15T08:28:58;101385.99;;;3.21;92.88
62928;BME280;51070;52.236;-0.892;2023-02-15T08:31:24;101385.34;;;3.20;93.03
62928;BME280;51070;52.236;-0.892;2023-02-15T08:33:52;101382.73;;;3.19;93.50
62928;BME280;51070;52.236;-0.892;2023-02-15T08:36:20;101375.54;;;3.18;93.48
62928;BME280;51070;52.236;-0.892;2023-02-15T08:38:46;101376.52;;;3.18;93.34
62928;BME280;51070;52.236;-0.892;2023-02-15T08:41:19;101375.03;;;3.19;93.94
62928;BME280;51070;52.236;-0.892;2023-02-15T08:43:50;101371.48;;;3.19;94.10
62928;BME280;51070;52.236;-0.892;2023-02-15T08:46:17;101364.55;;;3.22;94.50
62928;BME280;51070;52.236;-0.892;2023-02-15T08:48:43;101361.27;;;3.27;94.88
62928;BME280;51070;52.236;-0.892;2023-02-15T08:51:12;101362.53;;;3.32;95.23
62928;BME280;51070;52.236;-0.892;2023-02-15T08:53:39;101355.12;;;3.41;95.28
62928;BME280;51070;52.236;-0.892;2023-02-15T08:56:05;101346.23;;;3.49;95.31
62928;BME280;51070;52.236;-0.892;2023-02-15T08:58:32;101340.45;;;3.59;96.01
62928;BME280;51070;52.236;-0.892;2023-02-15T09:00:58;101340.45;;;3.66;95.69
62928;BME280;51070;52.236;-0.892;2023-02-15T09:03:23;101335.52;;;3.71;94.97
62928;BME280;51070;52.236;-0.892;2023-02-15T09:05:49;101339.20;;;3.77;95.56
62928;BME280;51070;52.236;-0.892;2023-02-15T09:08:15;101332.48;;;3.82;95.23
62928;BME280;51070;52.236;-0.892;2023-02-15T09:10:41;101332.22;;;3.86;95.71
62928;BME280;51070;52.236;-0.892;2023-02-15T09:13:06;101335.92;;;3.90;96.36
62928;BME280;51070;52.236;-0.892;2023-02-15T09:15:31;101337.46;;;3.95;96.16
62928;BME280;51070;52.236;-0.892;2023-02-15T09:17:57;101337.11;;;4.02;96.21
62928;BME280;51070;52.236;-0.892;2023-02-15T09:20:27;101336.67;;;4.10;96.41
62928;BME280;51070;52.236;-0.892;2023-02-15T09:22:53;101331.14;;;4.20;96.95
62928;BME280;51070;52.236;-0.892;2023-02-15T09:25:20;101331.52;;;4.31;97.41
62928;BME280;51070;52.236;-0.892;2023-02-15T09:27:45;101325.17;;;4.40;97.18
62928;BME280;51070;52.236;-0.892;2023-02-15T09:30:11;101329.33;;;4.51;97.25
62928;BME280;51070;52.236;-0.892;2023-02-15T09:32:37;101331.25;;;4.62;96.92
62928;BME280;51070;52.236;-0.892;2023-02-15T09:35:02;101331.77;;;4.73;97.03
62928;BME280;51070;52.236;-0.892;2023-02-15T09:37:30;101333.61;;;4.83;97.29
62928;BME280;51070;52.236;-0.892;2023-02-15T09:39:57;101333.40;;;4.93;97.22
62928;BME280;51070;52.236;-0.892;2023-02-15T09:42:44;101340.25;;;5.03;96.95
62928;BME280;51070;52.236;-0.892;2023-02-15T09:51:38;101348.58;;;5.43;96.79
62928;BME280;51070;52.236;-0.892;2023-02-15T09:54:16;101349.84;;;5.58;96.81
62928;BME280;51070;52.236;-0.892;2023-02-15T09:56:51;101345.41;;;5.72;96.57
62928;BME280;51070;52.236;-0.892;2023-02-15T10:10:38;101329.97;;;6.49;95.59
62928;BME280;51070;52.236;-0.892;2023-02-15T10:13:39;101317.51;;;6.65;97.13
62928;BME280;51070;52.236;-0.892;2023-02-15T10:17:00;101306.77;;;6.81;97.92
62928;BME280;51070;52.236;-0.892;2023-02-15T10:27:26;101317.97;;;7.40;97.67
62928;BME280;51070;52.236;-0.892;2023-02-15T10:30:08;101317.98;;;7.53;97.21
62928;BME280;51070;52.236;-0.892;2023-02-15T10:32:43;101328.05;;;7.68;96.71
62928;BME280;51070;52.236;-0.892;2023-02-15T10:35:22;101321.06;;;8.08;95.67
62928;BME280;51070;52.236;-0.892;2023-02-15T10:51:50;101298.62;;;10.92;81.38
62928;BME280;51070;52.236;-0.892;2023-02-15T10:54:46;101301.48;;;11.12;79.55
62928;BME280;51070;52.236;-0.892;2023-02-15T11:00:19;101288.98;;;11.02;77.96
62928;BME280;51070;52.236;-0.892;2023-02-15T11:08:32;101274.04;;;11.05;78.91
62928;BME280;51070;52.236;-0.892;2023-02-15T11:11:06;101271.69;;;11.07;78.32
62928;BME280;51070;52.236;-0.892;2023-02-15T11:13:39;101263.45;;;11.08;78.57
62928;BME280;51070;52.236;-0.892;2023-02-15T11:16:14;101272.06;;;11.16;77.90
62928;BME280;51070;52.236;-0.892;2023-02-15T11:19:06;101280.64;;;11.23;78.29
62928;BME280;51070;52.236;-0.892;2023-02-15T11:21:55;101284.23;;;11.27;76.24
62928;BME280;51070;52.236;-0.892;2023-02-15T11:24:26;101288.68;;;11.30;76.33
62928;BME280;51070;52.236;-0.892;2023-02-15T11:27:04;101283.35;;;11.30;75.81
62928;BME280;51070;52.236;-0.892;2023-02-15T11:29:37;101283.64;;;11.34;76.24
62928;BME280;51070;52.236;-0.892;2023-02-15T11:42:40;101269.32;;;11.81;74.98
62928;BME280;51070;52.236;-0.892;2023-02-15T11:47:44;101267.09;;;11.96;74.24
62928;BME280;51070;52.236;-0.892;2023-02-15T11:50:19;101272.77;;;11.95;72.90
62928;BME280;51070;52.236;-0.892;2023-02-15T11:52:49;101269.48;;;11.96;73.66
62928;BME280;51070;52.236;-0.892;2023-02-15T11:55:20;101271.98;;;11.97;73.23
62928;BME280;51070;52.236;-0.892;2023-02-15T11:57:53;101277.02;;;12.02;73.35
62928;BME280;51070;52.236;-0.892;2023-02-15T12:00:29;101263.56;;;11.99;72.13
62928;BME280;51070;52.236;-0.892;2023-02-15T12:03:21;101257.84;;;11.89;72.24
62928;BME280;51070;52.236;-0.892;2023-02-15T12:05:53;101251.05;;;11.88;72.41
62928;BME280;51070;52.236;-0.892;2023-02-15T12:08:21;101244.44;;;11.87;72.95
62928;BME280;51070;52.236;-0.892;2023-02-15T12:11:08;101241.73;;;11.90;73.12
62928;BME280;51070;52.236;-0.892;2023-02-15T12:13:57;101243.23;;;11.97;73.39
62928;BME280;51070;52.236;-0.892;2023-02-15T12:16:25;101245.13;;;12.07;73.51
62928;BME280;51070;52.236;-0.892;2023-02-15T12:18:55;101247.94;;;12.23;74.07
62928;BME280;51070;52.236;-0.892;2023-02-15T12:21:30;101239.86;;;12.41;73.62
62928;BME280;51070;52.236;-0.892;2023-02-15T12:24:01;101234.52;;;12.58;73.42
62928;BME280;51070;52.236;-0.892;2023-02-15T12:26:34;101236.02;;;12.72;72.36
62928;BME280;51070;52.236;-0.892;2023-02-15T12:29:06;101233.73;;;12.71;70.64
62928;BME280;51070;52.236;-0.892;2023-02-15T12:31:40;101236.33;;;12.66;71.00
62928;BME280;51070;52.236;-0.892;2023-02-15T12:34:22;101233.02;;;12.66;70.50
62928;BME280;51070;52.236;-0.892;2023-02-15T12:36:53;101228.70;;;12.66;70.74
62928;BME280;51070;52.236;-0.892;2023-02-15T12:39:30;101226.61;;;12.65;70.42
62928;BME280;51070;52.236;-0.892;2023-02-15T12:42:14;101217.86;;;12.69;71.28
62928;BME280;51070;52.236;-0.892;2023-02-15T12:44:56;101219.14;;;12.76;70.68
62928;BME280;51070;52.236;-0.892;2023-02-15T12:47:22;101211.80;;;12.80;69.70
62928;BME280;51070;52.236;-0.892;2023-02-15T12:50:14;101220.59;;;12.84;69.50
62928;BME280;51070;52.236;-0.892;2023-02-15T12:52:45;101220.18;;;12.87;70.14
62928;BME280;51070;52.236;-0.892;2023-02-15T12:55:23;101225.95;;;12.94;69.85
62928;BME280;51070;52.236;-0.892;2023-02-15T12:58:05;101220.11;;;13.02;70.06
62928;BME280;51070;52.236;-0.892;2023-02-15T13:00:31;101214.20;;;13.12;70.36
62928;BME280;51070;52.236;-0.892;2023-02-15T13:02:58;101212.64;;;13.24;70.39
62928;BME280;51070;52.236;-0.892;2023-02-15T13:05:32;101213.20;;;13.31;69.44
62928;BME280;51070;52.236;-0.892;2023-02-15T13:08:18;101205.23;;;13.32;68.37
62928;BME280;51070;52.236;-0.892;2023-02-15T13:13:26;101199.85;;;13.37;68.32
62928;BME280;51070;52.236;-0.892;2023-02-15T13:15:54;101196.52;;;13.36;67.63
62928;BME280;51070;52.236;-0.892;2023-02-15T13:18:33;101193.81;;;13.39;68.18
62928;BME280;51070;52.236;-0.892;2023-02-15T13:21:23;101192.70;;;13.42;68.11
62928;BME280;51070;52.236;-0.892;2023-02-15T13:23:58;101191.00;;;13.50;68.60
62928;BME280;51070;52.236;-0.892;2023-02-15T13:26:26;101189.80;;;13.57;67.92
62928;BME280;51070;52.236;-0.892;2023-02-15T13:28:56;101191.74;;;13.58;68.01
62928;BME280;51070;52.236;-0.892;2023-02-15T13:31:26;101182.10;;;13.61;67.28
62928;BME280;51070;52.236;-0.892;2023-02-15T13:33:56;101184.00;;;13.67;67.31
62928;BME280;51070;52.236;-0.892;2023-02-15T13:42:00;101152.20;;;13.79;67.01
62928;BME280;51070;52.236;-0.892;2023-02-15T13:55:37;101140.74;;;13.86;64.87
62928;BME280;51070;52.236;-0.892;2023-02-15T13:58:26;101135.95;;;13.83;65.10
62928;BME280;51070;52.236;-0.892;2023-02-15T14:01:10;101139.58;;;13.82;64.91
62928;BME280;51070;52.236;-0.892;2023-02-15T14:03:50;101140.55;;;13.86;65.52
62928;BME280;51070;52.236;-0.892;2023-02-15T14:21:10;101136.88;;;14.48;64.27
62928;BME280;51070;52.236;-0.892;2023-02-15T14:24:24;101136.63;;;14.53;63.85
62928;BME280;51070;52.236;-0.892;2023-02-15T14:27:26;101138.36;;;14.52;64.22
62928;BME280;51070;52.236;-0.892;2023-02-15T14:29:57;101139.39;;;14.45;63.22
62928;BME280;51070;52.236;-0.892;2023-02-15T14:32:36;101134.67;;;14.37;63.50
62928;BME280;51070;52.236;-0.892;2023-02-15T14:35:12;101133.48;;;14.31;64.26
62928;BME280;51070;52.236;-0.892;2023-02-15T14:43:05;101133.01;;;14.18;65.25
62928;BME280;51070;52.236;-0.892;2023-02-15T14:45:49;101128.90;;;14.14;65.28
62928;BME280;51070;52.236;-0.892;2023-02-15T14:48:29;101127.15;;;14.07;65.37
62928;BME280;51070;52.236;-0.892;2023-02-15T14:50:56;101133.09;;;14.07;66.09
62928;BME280;51070;52.236;-0.892;2023-02-15T14:53:43;101136.51;;;14.12;66.51
62928;BME280;51070;52.236;-0.892;2023-02-15T14:56:20;101134.83;;;14.15;66.11
62928;BME280;51070;52.236;-0.892;2023-02-15T15:01:15;101134.86;;;13.95;66.78
62928;BME280;51070;52.236;-0.892;2023-02-15T15:03:51;101137.43;;;13.79;66.91
62928;BME280;51070;52.236;-0.892;2023-02-15T15:06:27;101136.69;;;13.64;67.48
62928;BME280;51070;52.236;-0.892;2023-02-15T15:09:35;101141.23;;;13.53;68.07
62928;BME280;51070;52.236;-0.892;2023-02-15T15:14:52;101135.35;;;13.41;68.80
62928;BME280;51070;52.236;-0.892;2023-02-15T15:22:27;101128.98;;;13.36;69.39
62928;BME280;51070;52.236;-0.892;2023-02-15T15:24:54;101130.14;;;13.34;69.66
62928;BME280;51070;52.236;-0.892;2023-02-15T15:49:09;101146.77;;;13.20;70.66
62928;BME280;51070;52.236;-0.892;2023-02-15T15:51:40;101144.30;;;13.13;70.92
62928;BME280;51070;52.236;-0.892;2023-02-15T15:54:11;101145.65;;;13.07;71.20
62928;BME280;51070;52.236;-0.892;2023-02-15T15:56:37;101142.35;;;13.00;71.41